createdAt,value
2019-05-20T00:00:15.281Z,55.81
2019-05-20T00:02:48.677Z,58.67
2019-05-20T00:05:21.359Z,60.94
2019-05-20T00:07:53.933Z,62.90
2019-05-20T00:10:26.613Z,61.82
2019-05-20T00:12:59.297Z,53.81
2019-05-20T00:15:32.177Z,54.22
2019-05-20T00:18:04.807Z,56.71
2019-05-20T00:20:37.432Z,58.76
2019-05-20T00:23:10.020Z,60.65
2019-05-20T00:25:42.694Z,62.40
2019-05-20T00:28:15.267Z,63.03
2019-05-20T00:30:47.765Z,54.83
2019-05-20T00:33:19.987Z,53.90
2019-05-20T00:35:52.690Z,56.79
2019-05-20T00:38:25.339Z,59.24
2019-05-20T00:40:58.055Z,61.39
2019-05-20T00:43:30.516Z,62.99
2019-05-20T00:46:03.815Z,62.64
2019-05-20T00:48:36.491Z,54.75
2019-05-20T00:51:09.223Z,56.33
2019-05-20T00:53:41.856Z,59.58
2019-05-20T00:56:15.862Z,61.89
2019-05-20T00:58:48.542Z,63.41
2019-05-20T01:01:21.220Z,55.07
2019-05-20T01:03:53.901Z,54.41
2019-05-20T01:06:26.590Z,57.42
2019-05-20T01:08:59.255Z,59.98
2019-05-20T01:11:31.549Z,62.14
2019-05-20T01:14:04.834Z,65.22
2019-05-20T01:16:37.706Z,58.86
2019-05-20T01:19:10.396Z,54.74
2019-05-20T01:21:43.165Z,57.14
2019-05-20T01:24:15.745Z,59.45
2019-05-20T01:26:48.422Z,61.63
2019-05-20T01:29:22.540Z,63.86
2019-05-20T01:31:55.211Z,63.22
2019-05-20T01:34:28.202Z,55.05
2019-05-20T01:37:00.892Z,54.04
2019-05-20T01:39:33.566Z,56.84
2019-05-20T01:42:06.243Z,59.99
2019-05-20T01:44:38.472Z,61.70
2019-05-20T01:47:11.195Z,63.57
2019-05-20T01:49:44.897Z,62.80
2019-05-20T01:52:17.690Z,54.78
2019-05-20T01:54:50.357Z,56.46
2019-05-20T01:57:23.035Z,59.27
2019-05-20T01:59:55.717Z,61.72
2019-05-20T02:02:28.399Z,63.79
2019-05-20T02:05:01.425Z,62.71
2019-05-20T02:07:34.374Z,53.91
2019-05-20T02:10:10.118Z,53.59
2019-05-20T02:12:42.797Z,56.23
2019-05-20T02:15:21.302Z,59.65
2019-05-20T02:17:54.714Z,61.71
2019-05-20T02:20:26.952Z,65.37
2019-05-20T02:23:17.989Z,60.73
2019-05-20T02:25:51.480Z,53.42
2019-05-20T02:28:25.285Z,55.98
2019-05-20T02:30:57.993Z,58.86
2019-05-20T02:33:47.868Z,62.09
2019-05-20T02:36:05.070Z,64.76
2019-05-20T02:38:37.752Z,57.10
2019-05-20T02:41:10.429Z,54.59
2019-05-20T02:43:43.109Z,57.50
2019-05-20T02:46:15.689Z,60.30
2019-05-20T02:48:48.354Z,62.05
2019-05-20T02:51:22.581Z,63.76
2019-05-20T02:53:55.265Z,63.76
2019-05-20T02:56:27.934Z,55.74
2019-05-20T02:59:00.609Z,53.62
2019-05-20T03:01:33.185Z,56.42
2019-05-20T03:04:12.253Z,59.10
2019-05-20T03:06:40.169Z,61.21
2019-05-20T03:09:12.918Z,62.91
2019-05-20T03:11:45.112Z,63.20
2019-05-20T03:18:02.686Z,55.70
2019-05-20T03:20:35.389Z,58.26
2019-05-20T03:23:08.061Z,61.18
2019-05-20T03:25:40.772Z,62.54
2019-05-20T03:28:13.442Z,62.81
2019-05-20T03:30:46.109Z,55.16
2019-05-20T03:33:18.785Z,53.24
2019-05-20T03:35:51.574Z,56.03
2019-05-20T03:38:24.246Z,58.55
2019-05-20T03:40:56.925Z,60.24
2019-05-20T03:43:29.604Z,62.41
2019-05-20T03:46:02.284Z,63.09
2019-05-20T03:48:36.497Z,54.97
2019-05-20T03:51:09.180Z,53.31
2019-05-20T03:53:41.859Z,55.92
2019-05-20T03:56:14.960Z,58.45
2019-05-20T03:58:47.521Z,60.69
2019-05-20T04:01:20.203Z,62.65
2019-05-20T04:03:52.875Z,62.71
2019-05-20T04:06:25.501Z,54.29
2019-05-20T04:08:58.137Z,53.75
2019-05-20T04:11:30.809Z,56.77
2019-05-20T04:14:03.394Z,59.47
2019-05-20T04:16:36.099Z,61.68
2019-05-20T04:19:08.750Z,63.16
2019-05-20T04:21:41.420Z,61.86
2019-05-20T04:24:18.478Z,54.60
2019-05-20T04:27:02.848Z,55.93
2019-05-20T04:29:38.466Z,59.06
2019-05-20T04:32:17.654Z,61.68
2019-05-20T04:34:51.037Z,61.39
2019-05-20T04:37:27.512Z,54.29
2019-05-20T04:40:00.189Z,55.57
2019-05-20T04:42:32.754Z,59.00
2019-05-20T04:45:06.982Z,61.43
2019-05-20T04:47:39.460Z,62.73
2019-05-20T04:50:12.441Z,62.34
2019-05-20T04:52:45.118Z,53.90
2019-05-20T04:55:17.841Z,53.29
2019-05-20T04:57:50.468Z,56.17
2019-05-20T05:00:50.241Z,58.71
2019-05-20T05:03:23.716Z,60.78
2019-05-20T05:05:56.493Z,62.27
2019-05-20T05:08:29.158Z,64.50
2019-05-20T05:11:02.033Z,56.02
2019-05-20T05:13:34.256Z,55.64
2019-05-20T05:16:06.986Z,57.58
2019-05-20T05:18:41.196Z,59.66
2019-05-20T05:21:13.872Z,62.12
2019-05-20T05:23:58.254Z,64.07
2019-05-20T05:26:20.865Z,55.78
2019-05-20T05:28:53.551Z,54.88
2019-05-20T05:31:26.231Z,57.29
2019-05-20T05:33:58.908Z,59.86
2019-05-20T05:36:31.582Z,61.78
2019-05-20T05:39:05.695Z,62.89
2019-05-20T05:41:38.376Z,55.20
2019-05-20T05:44:11.060Z,55.36
2019-05-20T05:46:43.737Z,57.86
2019-05-20T05:49:16.406Z,59.59
2019-05-20T05:51:49.087Z,61.81
2019-05-20T05:54:21.673Z,63.29
2019-05-20T05:56:54.342Z,58.39
2019-05-20T05:59:26.927Z,55.19
2019-05-20T06:01:59.601Z,57.03
2019-05-20T06:04:32.278Z,59.48
2019-05-20T06:07:04.959Z,60.90
2019-05-20T06:09:37.952Z,63.19
2019-05-20T06:12:10.627Z,56.44
2019-05-20T06:14:43.259Z,55.27
2019-05-20T06:17:15.888Z,57.93
2019-05-20T06:19:48.569Z,60.10
2019-05-20T06:22:21.246Z,62.01
2019-05-20T06:24:53.918Z,61.07
2019-05-20T06:27:26.600Z,54.34
2019-05-20T06:29:59.185Z,55.46
2019-05-20T06:32:32.061Z,57.59
2019-05-20T06:35:09.045Z,60.40
2019-05-20T06:37:47.919Z,61.49
2019-05-20T06:40:20.546Z,62.08
2019-05-20T06:42:53.936Z,55.78
2019-05-20T06:45:26.616Z,56.62
2019-05-20T06:47:59.298Z,59.62
2019-05-20T06:50:32.075Z,62.08
2019-05-20T06:53:06.497Z,62.71
2019-05-20T06:55:39.438Z,57.97
2019-05-20T06:58:12.469Z,56.11
2019-05-20T07:00:45.362Z,57.90
2019-05-20T07:03:18.034Z,60.30
2019-05-20T07:05:50.715Z,60.85
2019-05-20T07:08:23.411Z,61.64
2019-05-20T07:10:56.182Z,59.29
2019-05-20T07:13:29.165Z,55.78
2019-05-20T07:16:01.898Z,56.89
2019-05-20T07:18:34.627Z,58.51
2019-05-20T07:21:07.199Z,60.19
2019-05-20T07:23:39.882Z,60.16
2019-05-20T07:26:12.554Z,61.03
2019-05-20T07:28:45.200Z,62.51
2019-05-20T07:31:17.869Z,57.96
2019-05-20T07:33:50.490Z,54.43
2019-05-20T07:36:23.112Z,56.57
2019-05-20T07:38:56.786Z,58.75
2019-05-20T07:41:29.354Z,60.60
2019-05-20T07:44:02.148Z,61.64
2019-05-20T07:46:36.445Z,61.71
2019-05-20T07:49:10.197Z,62.03
2019-05-20T07:51:43.970Z,62.97
2019-05-20T07:54:17.253Z,56.89
2019-05-20T07:56:52.950Z,55.37
2019-05-20T07:59:27.939Z,57.61
2019-05-20T08:02:00.731Z,59.09
2019-05-20T08:04:34.053Z,60.41
2019-05-20T08:07:26.116Z,62.05
2019-05-20T08:09:45.678Z,61.32
2019-05-20T08:12:15.016Z,54.53
2019-05-20T08:14:47.702Z,55.77
2019-05-20T08:17:20.423Z,58.23
2019-05-20T08:19:53.061Z,59.22
2019-05-20T08:22:25.732Z,60.80
2019-05-20T08:24:58.465Z,61.99
2019-05-20T08:27:31.094Z,59.51
2019-05-20T08:30:04.185Z,56.84
2019-05-20T08:32:37.374Z,58.39
2019-05-20T08:35:11.282Z,60.93
2019-05-20T08:37:45.791Z,60.23
2019-05-20T08:40:17.601Z,60.23
2019-05-20T08:42:50.246Z,60.89
2019-05-20T08:45:22.925Z,61.78
2019-05-20T08:47:55.555Z,62.47
2019-05-20T08:50:28.279Z,55.71
2019-05-20T08:53:00.959Z,55.50
2019-05-20T08:55:33.858Z,58.11
2019-05-20T08:58:06.383Z,60.02
2019-05-20T09:00:39.611Z,61.99
2019-05-20T09:03:12.345Z,62.21
2019-05-20T09:05:45.063Z,56.06
2019-05-20T09:08:18.979Z,55.76
2019-05-20T09:10:51.651Z,57.41
2019-05-20T09:13:24.333Z,59.66
2019-05-20T09:15:57.021Z,60.73
2019-05-20T09:18:29.738Z,61.62
2019-05-20T09:21:02.659Z,62.62
2019-05-20T09:23:37.651Z,56.35
2019-05-20T09:26:10.341Z,56.24
2019-05-20T09:28:44.347Z,58.77
2019-05-20T09:31:17.192Z,60.93
2019-05-20T09:33:52.230Z,61.73
2019-05-20T09:36:26.031Z,61.94
2019-05-20T09:38:59.819Z,54.87
2019-05-20T09:41:35.372Z,56.50
2019-05-20T09:44:09.795Z,58.72
2019-05-20T09:46:43.854Z,60.96
2019-05-20T09:49:16.647Z,62.48
2019-05-20T09:51:49.626Z,57.53
2019-05-20T09:54:22.329Z,55.87
2019-05-20T09:56:54.681Z,58.50
2019-05-20T09:59:41.982Z,60.22
2019-05-20T10:02:01.862Z,61.88
2019-05-20T10:04:34.502Z,61.34
2019-05-20T10:07:07.319Z,55.22
2019-05-20T10:09:40.081Z,56.52
2019-05-20T10:12:12.815Z,59.18
2019-05-20T10:14:47.628Z,61.00
2019-05-20T10:17:20.366Z,63.28
2019-05-20T10:19:53.299Z,58.84
2019-05-20T10:22:26.032Z,56.01
2019-05-20T10:24:58.713Z,58.32
2019-05-20T10:27:34.624Z,60.83
2019-05-20T10:30:11.193Z,62.43
2019-05-20T10:32:43.929Z,59.71
2019-05-20T10:35:17.097Z,56.04
2019-05-20T10:37:49.775Z,58.60
2019-05-20T10:40:22.468Z,61.11
2019-05-20T10:42:55.148Z,62.06
2019-05-20T10:45:27.868Z,55.49
2019-05-20T10:48:00.606Z,56.90
2019-05-20T10:50:34.308Z,59.63
2019-05-20T10:53:07.031Z,61.52
2019-05-20T10:55:39.262Z,62.34
2019-05-20T10:58:11.939Z,55.94
2019-05-20T11:01:00.968Z,57.23
2019-05-20T11:03:18.668Z,58.24
2019-05-20T11:05:51.646Z,59.02
2019-05-20T11:08:24.290Z,60.77
2019-05-20T11:10:57.628Z,60.89
2019-05-20T11:13:30.464Z,59.94
2019-05-20T11:16:03.146Z,60.25
2019-05-20T11:18:35.826Z,61.43
2019-05-20T11:21:08.507Z,60.16
2019-05-20T11:23:40.898Z,60.53
2019-05-20T11:26:13.801Z,61.92
2019-05-20T11:28:47.976Z,61.13
2019-05-20T11:31:20.217Z,53.20
2019-05-20T11:33:52.620Z,53.73
2019-05-20T11:36:25.305Z,55.58
2019-05-20T11:38:57.595Z,55.91
2019-05-20T11:41:52.089Z,57.30
2019-05-20T11:44:04.820Z,57.31
2019-05-20T11:46:37.447Z,56.33
2019-05-20T11:49:10.140Z,57.38
2019-05-20T11:51:42.703Z,57.82
2019-05-20T11:54:15.843Z,58.51
2019-05-20T11:56:48.472Z,57.73
2019-05-20T11:59:21.154Z,56.33
2019-05-20T12:01:53.830Z,56.80
2019-05-20T12:04:27.739Z,57.00
2019-05-20T12:07:00.377Z,55.54
2019-05-20T12:09:48.105Z,55.07
2019-05-20T12:12:07.287Z,52.40
2019-05-20T12:14:39.985Z,52.59
2019-05-20T12:17:12.764Z,52.07
2019-05-20T12:19:45.460Z,52.24
2019-05-20T12:22:18.073Z,52.56
2019-05-20T12:24:51.812Z,52.77
2019-05-20T12:27:24.628Z,53.29
2019-05-20T12:29:57.305Z,53.89
2019-05-20T12:32:29.987Z,54.54
2019-05-20T12:35:02.810Z,53.91
2019-05-20T12:37:35.800Z,53.98
2019-05-20T12:40:09.983Z,53.31
2019-05-20T12:42:42.642Z,53.61
2019-05-20T12:45:15.536Z,53.51
2019-05-20T12:47:48.099Z,52.40
2019-05-20T12:50:20.872Z,52.69
2019-05-20T12:52:53.557Z,52.79
2019-05-20T12:55:26.228Z,52.58
2019-05-20T12:57:58.915Z,52.47
2019-05-20T13:00:32.108Z,53.42
2019-05-20T13:03:04.683Z,51.31
2019-05-20T13:05:37.375Z,52.38
2019-05-20T13:08:09.668Z,51.84
2019-05-20T13:10:42.418Z,50.86
2019-05-20T13:13:15.087Z,50.50
2019-05-20T13:15:47.768Z,49.78
2019-05-20T13:18:20.668Z,48.24
2019-05-20T13:20:53.334Z,48.45
2019-05-20T13:23:26.015Z,47.22
2019-05-20T13:25:58.693Z,47.28
2019-05-20T13:28:31.272Z,47.66
2019-05-20T13:31:03.569Z,48.01
2019-05-20T13:33:36.024Z,47.10
2019-05-20T13:36:08.684Z,46.46
2019-05-20T13:38:41.414Z,45.88
2019-05-20T13:41:13.680Z,45.99
2019-05-20T13:43:46.931Z,46.27
2019-05-20T13:46:19.913Z,46.83
2019-05-20T13:48:52.520Z,44.72
2019-05-20T13:51:25.177Z,44.90
2019-05-20T13:53:57.863Z,42.52
2019-05-20T13:56:30.540Z,42.88
2019-05-20T13:59:02.808Z,44.28
2019-05-20T14:01:35.480Z,44.04
2019-05-20T14:04:08.164Z,44.86
2019-05-20T14:06:40.900Z,44.88
2019-05-20T14:09:13.514Z,45.67
2019-05-20T14:11:46.206Z,45.23
2019-05-20T14:14:18.984Z,47.91
2019-05-20T14:16:52.690Z,44.88
2019-05-20T14:19:25.478Z,43.24
2019-05-20T14:21:58.169Z,40.66
2019-05-20T14:24:30.830Z,40.48
2019-05-20T14:27:03.922Z,40.90
2019-05-20T14:29:36.897Z,41.08
2019-05-20T14:32:09.578Z,40.35
2019-05-20T14:34:42.821Z,39.32
2019-05-20T14:37:15.587Z,38.66
2019-05-20T14:39:48.309Z,39.05
2019-05-20T14:42:21.110Z,39.31
2019-05-20T14:44:54.001Z,38.82
2019-05-20T14:47:26.735Z,39.92
2019-05-20T14:49:59.354Z,40.14
2019-05-20T14:52:31.986Z,40.45
2019-05-20T14:55:06.161Z,41.20
2019-05-20T14:57:39.235Z,41.51
2019-05-20T15:00:13.343Z,41.32
2019-05-20T15:02:46.342Z,41.90
2019-05-20T15:05:18.910Z,42.58
2019-05-20T15:07:51.594Z,41.88
2019-05-20T15:10:24.400Z,41.37
2019-05-20T15:12:57.047Z,40.46
2019-05-20T15:15:30.849Z,39.80
2019-05-20T15:18:03.227Z,39.09
2019-05-20T15:20:35.802Z,38.44
2019-05-20T15:23:09.206Z,36.75
2019-05-20T15:25:41.887Z,36.31
2019-05-20T15:28:15.782Z,35.26
2019-05-20T15:30:48.420Z,35.49
2019-05-20T15:33:21.483Z,34.63
2019-05-20T15:35:54.139Z,34.38
2019-05-20T15:38:27.621Z,34.25
2019-05-20T15:41:00.208Z,34.16
2019-05-20T15:43:32.894Z,34.40
2019-05-20T15:46:05.827Z,32.95
2019-05-20T15:48:38.683Z,32.49
2019-05-20T15:51:11.372Z,32.59
2019-05-20T15:53:44.076Z,33.46
2019-05-20T15:56:16.700Z,34.68
2019-05-20T15:58:49.368Z,34.76
2019-05-20T16:01:22.168Z,34.94
2019-05-20T16:03:55.249Z,34.79
2019-05-20T16:06:27.873Z,34.53
2019-05-20T16:09:01.845Z,33.55
2019-05-20T16:11:37.598Z,32.63
2019-05-20T16:14:10.578Z,32.81
2019-05-20T16:16:43.458Z,32.18
2019-05-20T16:19:16.282Z,31.82
2019-05-20T16:21:50.059Z,31.00
2019-05-20T16:24:23.144Z,30.78
2019-05-20T16:26:56.753Z,30.53
2019-05-20T16:29:29.590Z,30.03
2019-05-20T16:32:01.801Z,29.21
2019-05-20T16:34:35.353Z,29.55
2019-05-20T16:37:08.054Z,28.99
2019-05-20T16:39:41.139Z,28.99
2019-05-20T16:42:13.725Z,29.41
2019-05-20T16:44:46.002Z,29.99
2019-05-20T16:47:18.437Z,30.59
2019-05-20T16:49:51.155Z,30.80
2019-05-20T16:52:23.726Z,31.33
2019-05-20T16:54:56.411Z,31.56
2019-05-20T16:57:29.139Z,31.11
2019-05-20T17:00:01.871Z,30.97
2019-05-20T17:02:35.364Z,30.73
2019-05-20T17:05:11.225Z,30.84
2019-05-20T17:07:43.584Z,30.12
2019-05-20T17:10:16.683Z,30.13
2019-05-20T17:12:50.030Z,30.38
2019-05-20T17:15:22.649Z,30.84
2019-05-20T17:17:55.234Z,31.23
2019-05-20T17:20:27.526Z,31.51
2019-05-20T17:23:00.488Z,32.13
2019-05-20T17:25:34.403Z,32.36
2019-05-20T17:28:07.012Z,32.62
2019-05-20T17:30:45.625Z,33.01
2019-05-20T17:33:13.980Z,33.50
2019-05-20T17:35:46.642Z,33.99
2019-05-20T17:38:18.861Z,34.91
2019-05-20T17:40:54.478Z,35.60
2019-05-20T17:43:27.402Z,36.52
2019-05-20T17:46:01.152Z,37.69
2019-05-20T17:48:33.722Z,38.87
2019-05-20T17:51:06.459Z,39.15
2019-05-20T17:53:38.795Z,40.03
2019-05-20T17:56:11.107Z,40.81
2019-05-20T17:58:43.783Z,41.93
2019-05-20T18:01:16.337Z,42.25
2019-05-20T18:03:48.674Z,42.83
2019-05-20T18:06:20.953Z,44.34
2019-05-20T18:08:55.157Z,44.50
2019-05-20T18:11:27.900Z,45.40
2019-05-20T18:14:00.414Z,45.66
2019-05-20T18:16:33.096Z,46.01
2019-05-20T18:19:06.029Z,46.98
2019-05-20T18:21:39.225Z,47.46
2019-05-20T18:24:11.894Z,47.89
2019-05-20T18:26:44.528Z,48.24
2019-05-20T18:29:17.102Z,49.07
2019-05-20T18:31:49.379Z,49.40
2019-05-20T18:34:21.954Z,50.19
2019-05-20T18:36:54.241Z,50.75
2019-05-20T18:39:26.960Z,51.86
2019-05-20T18:41:59.355Z,52.28
2019-05-20T18:44:32.010Z,52.78
2019-05-20T18:47:04.832Z,52.92
2019-05-20T18:49:40.765Z,53.03
2019-05-20T18:52:11.733Z,53.62
2019-05-20T18:54:44.041Z,53.64
2019-05-20T18:57:16.711Z,55.10
2019-05-20T18:59:49.382Z,55.69
2019-05-20T19:02:22.862Z,55.20
2019-05-20T19:04:56.045Z,55.43
2019-05-20T19:07:29.138Z,55.69
2019-05-20T19:10:01.877Z,56.10
2019-05-20T19:12:34.649Z,56.88
2019-05-20T19:15:08.813Z,57.08
2019-05-20T19:17:41.331Z,57.87
2019-05-20T19:20:13.651Z,58.07
2019-05-20T19:22:46.953Z,59.03
2019-05-20T19:25:19.537Z,59.20
2019-05-20T19:27:52.204Z,59.52
2019-05-20T19:30:24.887Z,61.05
2019-05-20T19:32:57.176Z,61.82
2019-05-20T19:35:29.834Z,63.47
2019-05-20T19:38:02.613Z,56.06
2019-05-20T19:40:35.212Z,52.75
2019-05-20T19:43:07.880Z,54.12
2019-05-20T19:45:40.562Z,55.08
2019-05-20T19:48:13.461Z,56.53
2019-05-20T19:50:49.644Z,57.42
2019-05-20T19:53:23.201Z,58.22
2019-05-20T19:55:56.749Z,59.34
2019-05-20T19:58:30.684Z,60.49
2019-05-20T20:01:03.605Z,61.47
2019-05-20T20:03:37.005Z,62.45
2019-05-20T20:06:11.933Z,63.35
2019-05-20T20:08:46.758Z,54.23
2019-05-20T20:11:29.295Z,51.22
2019-05-20T20:14:06.888Z,53.94
2019-05-20T20:16:41.658Z,55.59
2019-05-20T20:19:15.849Z,57.29
2019-05-20T20:21:53.062Z,58.06
2019-05-20T20:24:27.782Z,59.32
2019-05-20T20:27:02.247Z,60.57
2019-05-20T20:29:39.547Z,61.48
2019-05-20T20:32:15.623Z,62.48
2019-05-20T20:34:52.175Z,62.83
2019-05-20T20:37:26.657Z,54.90
2019-05-20T20:40:01.006Z,52.28
2019-05-20T20:42:35.137Z,54.13
2019-05-20T20:45:08.748Z,56.21
2019-05-20T20:47:42.301Z,57.66
2019-05-20T20:50:15.820Z,58.62
2019-05-20T20:52:48.383Z,59.26
2019-05-20T20:55:21.042Z,60.29
2019-05-20T20:57:53.669Z,60.79
2019-05-20T21:00:26.364Z,61.88
2019-05-20T21:02:58.985Z,63.69
2019-05-20T21:05:32.352Z,55.69
2019-05-20T21:08:05.091Z,53.04
2019-05-20T21:10:38.261Z,54.59
2019-05-20T21:13:12.230Z,56.13
2019-05-20T21:15:45.150Z,57.52
2019-05-20T21:18:18.793Z,59.02
2019-05-20T21:20:51.493Z,59.91
2019-05-20T21:23:24.168Z,60.87
2019-05-20T21:25:56.797Z,61.77
2019-05-20T21:28:30.541Z,62.82
2019-05-20T21:31:03.222Z,64.51
2019-05-20T21:33:36.995Z,55.87
2019-05-20T21:36:09.664Z,53.10
2019-05-20T21:38:42.281Z,54.96
2019-05-20T21:41:14.912Z,56.60
2019-05-20T21:43:47.492Z,57.78
2019-05-20T21:46:21.188Z,59.15
2019-05-20T21:48:53.764Z,60.44
2019-05-20T21:51:26.457Z,61.66
2019-05-20T21:53:59.143Z,62.69
2019-05-20T21:56:31.809Z,63.41
2019-05-20T21:59:04.796Z,55.25
2019-05-20T22:01:37.475Z,52.78
2019-05-20T22:04:10.106Z,54.99
2019-05-20T22:06:42.834Z,56.80
2019-05-20T22:09:15.715Z,58.50
2019-05-20T22:11:48.702Z,60.18
2019-05-20T22:14:21.338Z,61.21
2019-05-20T22:16:55.201Z,61.85
2019-05-20T22:19:27.752Z,62.21
2019-05-20T22:22:18.312Z,64.72
2019-05-20T22:24:50.997Z,55.43
2019-05-20T22:27:23.782Z,52.81
2019-05-20T22:29:56.401Z,55.25
2019-05-20T22:32:30.306Z,57.41
2019-05-20T22:35:02.886Z,59.35
2019-05-20T22:37:36.607Z,60.92
2019-05-20T22:40:08.819Z,61.85
2019-05-20T22:42:42.866Z,62.93
2019-05-20T22:45:15.756Z,64.11
2019-05-20T22:47:48.530Z,56.18
2019-05-20T22:50:21.416Z,53.27
2019-05-20T22:52:54.206Z,55.58
2019-05-20T22:55:26.775Z,57.80
2019-05-20T22:57:59.462Z,59.50
2019-05-20T23:00:32.251Z,60.75
2019-05-20T23:03:05.216Z,61.63
2019-05-20T23:05:38.178Z,62.50
2019-05-20T23:08:10.886Z,63.96
2019-05-20T23:10:43.779Z,55.76
2019-05-20T23:13:16.551Z,52.59
2019-05-20T23:15:49.449Z,54.74
2019-05-20T23:18:23.772Z,56.85
2019-05-20T23:20:56.701Z,59.14
2019-05-20T23:23:29.332Z,60.24
2019-05-20T23:26:02.097Z,61.51
2019-05-20T23:28:34.786Z,62.39
2019-05-20T23:31:08.070Z,63.61
2019-05-20T23:33:40.652Z,55.34
2019-05-20T23:36:13.690Z,52.66
2019-05-20T23:38:46.519Z,54.93
2019-05-20T23:41:19.145Z,57.39
2019-05-20T23:43:51.885Z,59.08
2019-05-20T23:46:24.557Z,60.27
2019-05-20T23:48:57.238Z,61.54
2019-05-20T23:51:30.040Z,63.11
2019-05-20T23:54:02.761Z,64.43
2019-05-20T23:56:35.370Z,56.29
2019-05-20T23:59:08.112Z,53.66
